Mooresville, Missouri
Current Conditions -  °F | °C
As of 3:35 AM on Friday 31 Oct 2014 (Local Time) from KGPH Reporting Station
Overcast Overcast  
Wind Chill: 42°   Ceiling: 2700
Heat Index: 48°   Visibility: 10mi
Dew Point: 37°   Wind: 15mph
Humidity: 66%   Direction: 340°NNW
Pressure: 30.28"   Gusts: 30mph
Location:  39.75°N, 93.72°W
Report Text: KGPH 310835Z AUTO 34013G26KT 10SM OVC027 09/03 A3028 RMK AO2
Loading
Personal Weather Stations






























Interactive Weather Map
Tropical Storm Tracking
New forecast layout! Learn more

10-Day Weather Forecast

Advertisements
Track Severe Weather on mobile